Time;durP1;ratioP1;P1;durP2;ratioP2;P2;SDS_P1;SDS_P2;PMS_P1;PMS_P2;Temp;Humidity;BMP_temperature;BMP_pressure;BME280_temperature;BME280_humidity;BME280_pressure;Samples;Min_cycle;Max_cycle;Signal;HPM_P1;HPM_P2
2021/07/06 00:02:19;;;;;;;2.60;0.70;;;21.60;99.90;;;;;;5013646;28;20198;-78
2021/07/06 00:04:47;;;;;;;4.23;0.70;;;21.60;99.90;;;;;;5013352;28;20940;-79
2021/07/06 00:07:16;;;;;;;1.53;0.60;;;21.60;99.90;;;;;;5012058;28;20609;-78
2021/07/06 00:09:43;;;;;;;1.20;0.77;;;21.70;99.90;;;;;;5011936;28;20568;-78
2021/07/06 00:12:09;;;;;;;1.70;0.70;;;21.70;99.90;;;;;;5013271;28;20637;-79
2021/07/06 00:14:35;;;;;;;1.10;0.60;;;21.70;99.90;;;;;;5013281;28;20553;-78
2021/07/06 00:17:01;;;;;;;1.50;0.70;;;21.80;99.90;;;;;;5013122;28;20972;-78
2021/07/06 00:19:27;;;;;;;2.00;0.60;;;21.80;99.90;;;;;;5012837;28;20558;-78
2021/07/06 00:21:53;;;;;;;2.10;0.60;;;21.80;99.90;;;;;;5012892;28;20969;-78
2021/07/06 00:24:19;;;;;;;1.30;0.70;;;21.80;99.90;;;;;;5013243;28;20170;-78
2021/07/06 00:26:45;;;;;;;1.10;0.60;;;21.80;99.90;;;;;;5011669;28;20585;-78
2021/07/06 00:29:10;;;;;;;1.00;0.50;;;21.80;99.90;;;;;;5015302;28;20582;-79
2021/07/06 00:31:36;;;;;;;1.97;0.50;;;21.70;99.90;;;;;;5012798;28;20263;-79
2021/07/06 00:34:02;;;;;;;1.87;0.60;;;21.80;99.90;;;;;;4995122;28;20214;-79
2021/07/06 00:36:30;;;;;;;2.70;0.60;;;21.70;99.90;;;;;;5012756;28;20642;-79
2021/07/06 00:38:56;;;;;;;1.30;0.60;;;21.70;99.90;;;;;;5012441;28;20171;-79
2021/07/06 00:41:21;;;;;;;2.10;0.70;;;21.70;99.90;;;;;;4995124;28;20671;-79
2021/07/06 00:43:47;;;;;;;2.20;0.63;;;21.70;99.90;;;;;;5012398;28;20601;-79
2021/07/06 00:46:13;;;;;;;1.53;0.60;;;21.70;99.90;;;;;;5011427;28;20498;-79
2021/07/06 00:48:39;;;;;;;1.40;0.70;;;21.70;99.90;;;;;;5012375;28;20202;-78
2021/07/06 00:51:04;;;;;;;2.20;0.70;;;21.70;99.90;;;;;;5012441;28;20236;-78
2021/07/06 00:53:30;;;;;;;1.10;0.53;;;21.70;99.90;;;;;;5011298;28;20190;-79
2021/07/06 00:55:57;;;;;;;1.77;0.70;;;21.70;99.90;;;;;;5010809;28;20749;-79
2021/07/06 00:58:24;;;;;;;1.30;0.60;;;21.70;99.90;;;;;;5012162;28;20166;-79
2021/07/06 01:00:54;;;;;;;3.00;0.70;;;21.70;99.90;;;;;;5011129;28;20573;-78
2021/07/06 01:03:20;;;;;;;1.20;0.70;;;21.70;99.90;;;;;;5011024;28;20692;-78
2021/07/06 01:05:46;;;;;;;5.37;0.77;;;21.70;99.90;;;;;;5015980;28;20581;-78
2021/07/06 01:08:12;;;;;;;2.60;0.60;;;21.60;99.90;;;;;;5011978;28;20708;-78
2021/07/06 01:10:38;;;;;;;2.47;0.60;;;21.60;99.90;;;;;;5012273;28;20255;-79
2021/07/06 01:13:05;;;;;;;1.00;0.53;;;21.60;99.90;;;;;;5012198;28;21160;-79
2021/07/06 01:15:32;;;;;;;1.50;0.60;;;21.60;99.90;;;;;;5012270;28;20573;-79
2021/07/06 01:18:09;;;;;;;4.07;0.80;;;21.60;99.90;;;;;;5012294;28;20572;-79
2021/07/06 01:20:37;;;;;;;1.67;0.60;;;21.50;99.90;;;;;;5012322;28;20569;-79
2021/07/06 01:23:05;;;;;;;2.20;0.90;;;21.50;99.90;;;;;;5011901;28;20616;-79
2021/07/06 01:25:38;;;;;;;2.07;0.60;;;21.50;99.90;;;;;;5012019;28;20573;-79
2021/07/06 01:28:05;;;;;;;1.90;0.60;;;21.50;99.90;;;;;;5011996;28;20605;-79
2021/07/06 01:30:32;;;;;;;2.20;0.60;;;21.40;99.90;;;;;;5010853;28;20613;-79
2021/07/06 01:32:59;;;;;;;1.10;0.60;;;21.40;99.90;;;;;;5010528;28;20740;-79
2021/07/06 01:35:25;;;;;;;1.30;0.70;;;21.30;99.90;;;;;;5010549;28;20585;-79
2021/07/06 01:37:53;;;;;;;1.30;0.70;;;21.30;99.90;;;;;;5011658;28;20658;-79
2021/07/06 01:40:21;;;;;;;1.20;0.63;;;21.20;99.90;;;;;;5011681;28;20570;-79
2021/07/06 01:42:48;;;;;;;1.97;0.70;;;21.20;99.90;;;;;;5014302;28;20592;-79
2021/07/06 01:45:20;;;;;;;4.20;0.80;;;21.20;99.90;;;;;;5010798;28;20951;-79
2021/07/06 01:47:51;;;;;;;1.10;0.50;;;21.20;99.90;;;;;;5011845;28;20906;-79
2021/07/06 01:50:20;;;;;;;2.30;0.73;;;21.20;99.90;;;;;;5011445;28;20597;-79
2021/07/06 01:52:48;;;;;;;2.70;0.63;;;21.10;99.90;;;;;;4993472;28;20983;-79
2021/07/06 01:55:24;;;;;;;1.70;0.70;;;21.10;99.90;;;;;;5003536;28;21129;-79
2021/07/06 01:57:52;;;;;;;1.70;0.70;;;21.10;99.90;;;;;;5010444;28;21160;-79
2021/07/06 02:00:20;;;;;;;4.63;0.70;;;21.10;99.90;;;;;;5011386;28;20573;-78
2021/07/06 02:02:46;;;;;;;2.00;0.60;;;21.10;99.90;;;;;;5011487;28;20617;-79
2021/07/06 02:05:15;;;;;;;1.10;0.60;;;21.10;99.90;;;;;;5011650;28;20665;-79
2021/07/06 02:07:42;;;;;;;1.80;0.60;;;21.10;99.90;;;;;;4993981;28;20931;-79
2021/07/06 02:10:08;;;;;;;1.93;0.50;;;21.10;99.90;;;;;;5014936;28;20569;-79
2021/07/06 02:12:35;;;;;;;1.00;0.50;;;21.00;99.90;;;;;;5015372;28;20668;-79
2021/07/06 02:15:01;;;;;;;2.30;0.73;;;21.00;99.90;;;;;;5015551;28;20561;-79
2021/07/06 02:17:27;;;;;;;1.10;0.60;;;21.00;99.90;;;;;;5015321;28;20564;-79
2021/07/06 02:19:54;;;;;;;2.57;0.90;;;21.00;99.90;;;;;;5017434;28;20515;-79
2021/07/06 02:22:20;;;;;;;2.13;0.80;;;21.00;99.90;;;;;;5015173;28;20617;-79
2021/07/06 02:24:45;;;;;;;1.70;0.60;;;21.00;99.90;;;;;;5015322;28;20595;-79
2021/07/06 02:27:11;;;;;;;2.20;0.70;;;21.00;99.90;;;;;;5014991;28;20170;-79
2021/07/06 02:29:38;;;;;;;2.23;0.70;;;21.00;99.90;;;;;;5014941;28;20224;-79
2021/07/06 02:32:05;;;;;;;1.93;0.60;;;21.00;99.90;;;;;;5013763;28;20695;-79
2021/07/06 02:34:30;;;;;;;2.70;0.80;;;21.00;99.90;;;;;;5013986;28;21120;-79
2021/07/06 02:36:57;;;;;;;1.20;0.70;;;21.00;99.90;;;;;;5013729;28;20620;-79
2021/07/06 02:39:23;;;;;;;3.30;0.60;;;21.00;99.90;;;;;;5015027;28;20285;-79
2021/07/06 02:41:48;;;;;;;1.60;0.60;;;21.00;99.90;;;;;;5014833;28;20687;-79
2021/07/06 02:44:14;;;;;;;2.70;0.87;;;21.00;99.90;;;;;;5015072;28;20196;-79
2021/07/06 02:46:40;;;;;;;3.90;0.77;;;20.90;99.90;;;;;;5014833;28;20201;-79
2021/07/06 02:49:06;;;;;;;1.10;0.60;;;21.00;99.90;;;;;;5014627;28;20922;-78
2021/07/06 02:51:35;;;;;;;1.77;0.60;;;21.00;99.90;;;;;;5014759;28;20620;-78
2021/07/06 02:54:02;;;;;;;2.70;0.70;;;21.00;99.90;;;;;;5015119;28;20166;-78
2021/07/06 02:56:28;;;;;;;2.23;0.60;;;21.00;99.90;;;;;;5024428;28;20557;-79
2021/07/06 02:58:54;;;;;;;1.40;0.70;;;21.00;99.90;;;;;;5014825;28;20608;-78
2021/07/06 03:01:19;;;;;;;1.33;0.90;;;21.00;99.90;;;;;;5014747;28;20596;-78
2021/07/06 03:03:45;;;;;;;1.93;0.90;;;21.00;99.90;;;;;;5013304;28;21169;-78
2021/07/06 03:06:11;;;;;;;1.23;0.70;;;21.00;99.90;;;;;;4996935;28;20661;-78
2021/07/06 03:08:37;;;;;;;1.30;0.60;;;21.00;99.90;;;;;;5013227;28;20224;-77
2021/07/06 03:11:02;;;;;;;1.83;0.60;;;21.00;99.90;;;;;;5014388;28;20910;-78
2021/07/06 03:13:28;;;;;;;1.40;0.60;;;21.00;99.90;;;;;;5013021;28;20345;-78
2021/07/06 03:15:54;;;;;;;1.30;0.70;;;21.00;99.90;;;;;;5007686;28;20203;-78
2021/07/06 03:18:20;;;;;;;2.63;0.70;;;21.00;99.90;;;;;;5010070;28;20261;-78
2021/07/06 03:20:48;;;;;;;1.30;0.60;;;21.00;99.90;;;;;;5013214;28;20175;-78
2021/07/06 03:23:13;;;;;;;1.73;0.60;;;20.90;99.90;;;;;;5005922;28;20265;-78
2021/07/06 03:25:41;;;;;;;2.90;0.70;;;20.90;99.90;;;;;;5012941;28;20612;-78
2021/07/06 03:28:06;;;;;;;1.87;0.90;;;21.00;99.90;;;;;;5013892;28;20174;-78
2021/07/06 03:30:34;;;;;;;2.47;0.60;;;21.00;99.90;;;;;;4996450;28;20920;-79
2021/07/06 03:33:01;;;;;;;1.67;0.70;;;21.00;99.90;;;;;;5014306;28;20206;-78
2021/07/06 03:35:27;;;;;;;2.13;0.90;;;20.90;99.90;;;;;;5014076;28;20573;-78
2021/07/06 03:37:55;;;;;;;2.13;0.70;;;21.00;99.90;;;;;;5013753;28;20570;-78
2021/07/06 03:40:20;;;;;;;1.87;0.93;;;21.00;99.90;;;;;;5012375;28;20570;-78
2021/07/06 03:42:47;;;;;;;1.30;0.80;;;21.00;99.90;;;;;;5013877;28;20602;-78
2021/07/06 03:45:13;;;;;;;3.03;0.90;;;21.00;99.90;;;;;;5013809;28;20564;-79
2021/07/06 03:47:39;;;;;;;2.07;0.83;;;20.90;99.90;;;;;;5013688;28;20621;-78
2021/07/06 03:50:08;;;;;;;2.87;0.80;;;21.00;99.90;;;;;;5013382;28;20592;-78
2021/07/06 03:52:33;;;;;;;1.80;0.80;;;21.00;99.90;;;;;;5013673;28;21089;-78
2021/07/06 03:54:59;;;;;;;5.10;0.80;;;21.00;99.90;;;;;;5013523;28;20716;-78
2021/07/06 03:57:31;;;;;;;1.87;0.60;;;21.00;99.90;;;;;;5012933;28;20174;-78
2021/07/06 04:00:07;;;;;;;1.90;0.80;;;21.00;99.90;;;;;;5003594;28;20170;-78
2021/07/06 04:02:38;;;;;;;2.40;0.80;;;21.00;99.90;;;;;;5011755;28;21183;-79
2021/07/06 04:05:06;;;;;;;1.40;0.70;;;21.00;99.90;;;;;;5012412;28;20565;-78
2021/07/06 04:07:32;;;;;;;1.87;0.80;;;21.00;99.90;;;;;;4994520;28;20570;-78
2021/07/06 04:09:58;;;;;;;4.53;0.80;;;21.00;99.90;;;;;;5013030;28;20584;-78
2021/07/06 04:12:23;;;;;;;2.60;0.70;;;21.00;99.90;;;;;;5012048;28;20706;-78
2021/07/06 04:14:49;;;;;;;2.73;0.70;;;20.90;99.90;;;;;;5012263;28;20558;-77
2021/07/06 04:17:15;;;;;;;1.50;0.77;;;20.90;99.90;;;;;;5012978;28;20171;-78
2021/07/06 04:19:40;;;;;;;1.73;0.60;;;20.90;99.90;;;;;;5012938;28;20220;-78
2021/07/06 04:22:06;;;;;;;3.77;0.70;;;20.90;99.90;;;;;;5011645;28;20728;-78
2021/07/06 04:24:33;;;;;;;1.90;1.40;;;20.90;99.90;;;;;;5013417;28;20170;-79
2021/07/06 04:26:59;;;;;;;2.33;0.80;;;20.80;99.90;;;;;;5011744;28;20569;-78
2021/07/06 04:29:25;;;;;;;2.20;0.90;;;20.80;99.90;;;;;;5011147;28;20921;-78
2021/07/06 04:31:53;;;;;;;3.73;0.90;;;20.80;99.90;;;;;;5012114;28;20620;-78
2021/07/06 04:34:19;;;;;;;2.03;0.87;;;20.80;99.90;;;;;;5011779;28;21145;-78
2021/07/06 04:36:44;;;;;;;2.97;1.03;;;20.70;99.90;;;;;;5012888;28;20917;-78
2021/07/06 04:39:11;;;;;;;2.03;1.10;;;20.70;99.90;;;;;;5012501;28;20588;-78
2021/07/06 04:41:37;;;;;;;2.33;0.90;;;20.70;99.90;;;;;;5012879;28;20661;-79
2021/07/06 04:44:02;;;;;;;3.43;1.00;;;20.70;99.90;;;;;;4995294;28;20668;-79
2021/07/06 04:46:28;;;;;;;1.60;0.80;;;20.60;99.90;;;;;;5015851;28;20665;-79
2021/07/06 04:48:55;;;;;;;1.60;0.83;;;20.60;99.90;;;;;;5011258;28;20597;-79
2021/07/06 04:51:20;;;;;;;2.17;1.00;;;20.60;99.90;;;;;;5012523;28;20248;-79
2021/07/06 04:53:46;;;;;;;3.40;0.93;;;20.60;99.90;;;;;;5011395;28;20949;-79
2021/07/06 04:56:12;;;;;;;2.27;0.90;;;20.60;99.90;;;;;;5012338;28;20170;-78
2021/07/06 04:58:38;;;;;;;1.90;0.73;;;20.60;99.90;;;;;;5012250;28;20177;-79
2021/07/06 05:01:05;;;;;;;1.50;0.77;;;20.50;99.90;;;;;;5012348;28;20933;-78
2021/07/06 05:03:33;;;;;;;2.07;0.80;;;20.50;99.90;;;;;;5012294;28;20190;-79
2021/07/06 05:06:00;;;;;;;2.30;0.80;;;20.50;99.90;;;;;;5012354;28;20580;-78
2021/07/06 05:08:26;;;;;;;3.27;0.90;;;20.40;99.90;;;;;;5012206;28;20577;-78
2021/07/06 05:10:52;;;;;;;5.00;1.17;;;20.30;99.90;;;;;;5012164;28;20620;-77
2021/07/06 05:13:18;;;;;;;1.50;0.90;;;20.30;99.90;;;;;;5012323;28;20604;-78
2021/07/06 05:15:45;;;;;;;3.63;1.07;;;20.30;99.90;;;;;;5011014;28;20524;-79
2021/07/06 05:18:11;;;;;;;1.80;1.03;;;20.20;99.90;;;;;;5010708;28;20609;-79
2021/07/06 05:20:37;;;;;;;1.70;1.00;;;20.20;99.90;;;;;;5012204;28;20609;-79
2021/07/06 05:23:03;;;;;;;4.80;0.90;;;20.20;99.90;;;;;;5013122;28;21075;-79
2021/07/06 05:25:29;;;;;;;2.00;1.00;;;20.10;99.90;;;;;;4993538;28;20685;-79
2021/07/06 05:27:55;;;;;;;1.80;0.90;;;20.10;99.90;;;;;;5012281;28;20576;-79
2021/07/06 05:30:20;;;;;;;2.13;1.20;;;20.10;99.90;;;;;;4994178;28;20597;-79
2021/07/06 05:32:47;;;;;;;2.60;1.07;;;20.00;99.90;;;;;;5011965;28;20197;-78
2021/07/06 05:35:13;;;;;;;1.50;0.90;;;20.00;99.90;;;;;;5010653;28;20540;-78
2021/07/06 05:37:39;;;;;;;3.33;0.90;;;19.90;99.90;;;;;;5011823;28;20566;-79
2021/07/06 05:40:07;;;;;;;5.70;1.43;;;19.90;99.90;;;;;;5011605;28;21008;-78
2021/07/06 05:42:34;;;;;;;2.40;1.13;;;19.80;99.90;;;;;;5011804;28;20664;-78
2021/07/06 05:45:01;;;;;;;3.37;0.90;;;19.70;99.90;;;;;;5011892;28;20696;-78
2021/07/06 05:47:27;;;;;;;1.70;0.90;;;19.80;99.90;;;;;;5011712;28;20570;-78
2021/07/06 05:49:53;;;;;;;4.80;1.33;;;19.70;99.90;;;;;;5011648;28;21127;-78
2021/07/06 05:52:18;;;;;;;7.83;1.00;;;19.60;99.90;;;;;;5010324;28;20622;-79
2021/07/06 05:54:44;;;;;;;6.53;1.50;;;19.60;99.90;;;;;;5011744;28;20166;-79
2021/07/06 05:57:10;;;;;;;3.00;1.10;;;19.60;99.90;;;;;;5010698;28;20197;-78
2021/07/06 05:59:36;;;;;;;3.23;0.80;;;19.50;99.90;;;;;;5013336;28;20577;-78
2021/07/06 06:02:02;;;;;;;2.13;1.00;;;19.60;99.90;;;;;;5011994;28;20194;-78
2021/07/06 06:04:27;;;;;;;3.00;0.90;;;19.50;99.90;;;;;;5010566;28;20180;-78
2021/07/06 06:06:54;;;;;;;2.27;1.30;;;19.50;99.90;;;;;;4994106;28;20620;-77
2021/07/06 06:09:19;;;;;;;3.20;1.40;;;19.50;99.90;;;;;;5011865;28;20182;-78
2021/07/06 06:11:45;;;;;;;2.07;1.00;;;19.60;99.90;;;;;;5011680;28;21020;-78
2021/07/06 06:14:11;;;;;;;2.37;1.00;;;19.60;99.90;;;;;;4991756;28;20178;-78
2021/07/06 06:16:36;;;;;;;2.47;1.00;;;19.60;99.90;;;;;;4991541;28;20221;-78
2021/07/06 06:19:04;;;;;;;2.87;2.20;;;19.60;99.90;;;;;;4974152;28;20218;-79
2021/07/06 06:21:32;;;;;;;3.33;1.10;;;19.70;99.90;;;;;;4991591;28;20566;-79
2021/07/06 06:23:58;;;;;;;2.10;1.20;;;19.70;99.90;;;;;;4991713;28;20660;-78
2021/07/06 06:26:23;;;;;;;1.87;1.27;;;19.70;99.90;;;;;;4974097;28;20960;-78
2021/07/06 06:28:49;;;;;;;3.87;1.40;;;19.80;99.90;;;;;;4991509;28;20605;-79
2021/07/06 06:31:17;;;;;;;2.70;1.63;;;19.80;99.90;;;;;;4991592;28;20697;-79
2021/07/06 06:33:43;;;;;;;2.40;1.30;;;19.80;99.90;;;;;;4991635;28;20195;-79
2021/07/06 06:36:09;;;;;;;3.63;1.37;;;19.80;99.90;;;;;;4991366;28;20570;-78
2021/07/06 06:38:34;;;;;;;5.20;1.50;;;19.80;99.90;;;;;;4991241;28;20570;-79
2021/07/06 06:41:00;;;;;;;4.33;1.90;;;19.80;99.90;;;;;;4990216;28;20609;-79
2021/07/06 06:43:26;;;;;;;3.70;1.37;;;19.90;99.90;;;;;;4991514;28;20191;-78
2021/07/06 06:45:52;;;;;;;3.37;1.60;;;19.90;99.90;;;;;;4991244;28;20583;-79
2021/07/06 06:48:18;;;;;;;2.77;1.80;;;19.90;99.90;;;;;;4991379;28;20267;-78
2021/07/06 06:50:44;;;;;;;2.53;1.60;;;19.90;99.90;;;;;;4991431;28;20234;-78
2021/07/06 06:53:09;;;;;;;2.37;1.20;;;19.90;99.90;;;;;;4991347;28;20195;-79
2021/07/06 06:55:35;;;;;;;2.20;1.27;;;19.90;99.90;;;;;;4993952;28;20566;-79
2021/07/06 06:58:01;;;;;;;2.60;1.20;;;19.80;99.90;;;;;;4995001;28;20254;-78
2021/07/06 07:00:28;;;;;;;2.50;1.80;;;19.80;99.90;;;;;;4994602;28;20203;-78
2021/07/06 07:02:55;;;;;;;4.20;1.37;;;19.70;99.90;;;;;;4994800;28;20191;-78
2021/07/06 07:05:21;;;;;;;3.10;1.30;;;19.70;99.90;;;;;;4994967;28;20562;-78
2021/07/06 07:07:46;;;;;;;3.10;1.60;;;19.70;99.90;;;;;;4994751;28;20578;-78
2021/07/06 07:10:13;;;;;;;4.80;2.40;;;19.70;99.90;;;;;;4994826;28;20175;-77
2021/07/06 07:12:40;;;;;;;2.90;1.43;;;19.70;99.90;;;;;;5002795;28;20577;-77
2021/07/06 07:15:11;;;;;;;1.90;1.27;;;19.70;99.90;;;;;;5006638;28;20594;-77
2021/07/06 07:17:38;;;;;;;2.03;1.53;;;19.70;99.90;;;;;;5014091;28;20577;-77
2021/07/06 07:20:05;;;;;;;1.70;1.10;;;19.70;99.90;;;;;;5013974;28;20561;-77
2021/07/06 07:22:31;;;;;;;2.13;1.53;;;19.60;99.90;;;;;;5014093;28;20625;-76
2021/07/06 07:24:57;;;;;;;2.50;1.10;;;19.70;99.90;;;;;;5014121;28;20928;-76
2021/07/06 07:27:23;;;;;;;3.90;2.10;;;19.70;99.90;;;;;;5012791;28;20588;-76
2021/07/06 07:29:49;;;;;;;2.73;1.40;;;19.70;99.90;;;;;;5013692;28;20171;-77
2021/07/06 07:32:15;;;;;;;3.20;1.40;;;19.70;99.90;;;;;;5013782;28;20241;-77
2021/07/06 07:34:42;;;;;;;2.60;1.23;;;19.80;99.90;;;;;;5012938;28;20588;-77
2021/07/06 07:37:08;;;;;;;1.70;1.17;;;19.80;99.90;;;;;;5013855;28;20577;-77
2021/07/06 07:39:36;;;;;;;3.77;1.37;;;19.90;99.90;;;;;;5013527;28;20928;-78
2021/07/06 07:42:04;;;;;;;3.77;1.50;;;19.90;99.90;;;;;;5013846;28;20645;-78
2021/07/06 07:44:30;;;;;;;2.10;1.47;;;20.00;99.90;;;;;;5013840;28;20569;-78
2021/07/06 07:46:56;;;;;;;5.20;1.60;;;20.00;99.90;;;;;;5013771;28;20965;-79
2021/07/06 07:49:22;;;;;;;2.30;1.30;;;20.00;99.90;;;;;;5016271;28;20570;-79
2021/07/06 07:51:47;;;;;;;1.87;1.00;;;20.10;99.90;;;;;;4996284;28;20625;-78
2021/07/06 07:54:13;;;;;;;1.90;1.10;;;20.10;99.90;;;;;;5012309;28;20237;-79
2021/07/06 07:56:41;;;;;;;2.07;1.10;;;20.20;99.90;;;;;;5013447;28;20170;-79
2021/07/06 07:59:08;;;;;;;2.80;1.10;;;20.20;99.90;;;;;;5013228;28;20181;-79
2021/07/06 08:01:34;;;;;;;2.13;1.23;;;20.30;99.90;;;;;;5012638;28;20705;-79
2021/07/06 08:03:59;;;;;;;5.83;1.00;;;20.30;99.90;;;;;;5013265;28;20652;-79
2021/07/06 08:06:25;;;;;;;2.10;0.90;;;20.30;99.90;;;;;;4994615;28;20269;-79
2021/07/06 08:08:51;;;;;;;1.93;1.30;;;20.30;99.90;;;;;;5013149;28;20173;-79
2021/07/06 08:11:17;;;;;;;2.20;0.80;;;20.40;99.90;;;;;;5013247;28;20202;-79
2021/07/06 08:13:42;;;;;;;2.27;0.93;;;20.40;99.90;;;;;;5012987;28;20186;-79
2021/07/06 08:16:08;;;;;;;3.70;1.10;;;20.50;99.90;;;;;;5011922;28;20166;-78
2021/07/06 08:18:34;;;;;;;2.03;1.10;;;20.50;99.90;;;;;;5011752;28;20173;-78
2021/07/06 08:21:00;;;;;;;2.53;0.97;;;20.50;99.90;;;;;;5005359;28;20674;-78
2021/07/06 08:23:26;;;;;;;2.77;1.23;;;20.50;99.90;;;;;;4992983;28;20617;-78
2021/07/06 08:25:52;;;;;;;8.40;2.47;;;20.60;99.90;;;;;;4994352;28;20677;-78
2021/07/06 08:28:18;;;;;;;2.43;1.03;;;20.60;99.90;;;;;;4993303;28;20670;-79
2021/07/06 08:30:45;;;;;;;2.93;1.20;;;20.70;99.90;;;;;;4991777;28;21197;-78
2021/07/06 08:33:11;;;;;;;1.80;0.93;;;20.70;99.90;;;;;;4993084;28;20589;-79
2021/07/06 08:35:37;;;;;;;1.40;0.90;;;20.70;99.90;;;;;;4992015;28;20593;-79
2021/07/06 08:38:03;;;;;;;1.60;0.90;;;20.80;99.90;;;;;;4993368;28;20605;-79
2021/07/06 08:40:29;;;;;;;17.50;3.23;;;20.80;99.90;;;;;;4975662;28;20331;-79
2021/07/06 08:42:59;;;;;;;1.90;1.03;;;20.80;99.90;;;;;;4992951;28;20682;-79
2021/07/06 08:45:26;;;;;;;1.30;0.90;;;20.80;99.90;;;;;;4975808;28;20566;-78
2021/07/06 08:47:53;;;;;;;1.67;0.97;;;20.80;99.90;;;;;;4992727;28;20581;-78
2021/07/06 08:50:20;;;;;;;1.87;1.10;;;20.90;99.90;;;;;;4992882;28;20915;-78
2021/07/06 08:52:46;;;;;;;2.70;1.10;;;20.90;99.90;;;;;;4992891;28;20634;-78
2021/07/06 08:55:16;;;;;;;2.90;1.20;;;20.90;99.90;;;;;;4991584;28;20575;-78
2021/07/06 08:57:44;;;;;;;1.87;0.90;;;21.00;99.90;;;;;;4992548;28;20265;-78
2021/07/06 09:00:13;;;;;;;1.30;0.87;;;21.00;99.90;;;;;;4992488;28;20566;-78
2021/07/06 09:02:39;;;;;;;2.43;1.13;;;21.00;99.90;;;;;;4995947;28;21064;-78
2021/07/06 09:05:17;;;;;;;3.23;1.20;;;21.10;99.90;;;;;;4994031;28;20565;-78
2021/07/06 09:07:43;;;;;;;1.70;1.07;;;21.10;99.90;;;;;;4993102;28;20665;-79
2021/07/06 09:10:14;;;;;;;2.17;1.20;;;21.20;99.90;;;;;;4992530;28;21053;-77
2021/07/06 09:12:40;;;;;;;1.63;1.10;;;21.20;99.90;;;;;;4992692;28;20665;-78
2021/07/06 09:15:23;;;;;;;4.03;1.20;;;21.20;99.90;;;;;;4992915;28;20606;-78
2021/07/06 09:18:17;;;;;;;2.10;1.17;;;21.30;99.90;;;;;;4992543;28;20251;-79
2021/07/06 09:21:02;;;;;;;4.40;1.00;;;21.30;99.90;;;;;;4992442;28;20574;-79
2021/07/06 09:23:40;;;;;;;2.43;1.10;;;21.40;99.90;;;;;;4993363;28;21128;-79
2021/07/06 09:26:13;;;;;;;1.50;0.90;;;21.50;99.90;;;;;;4991769;28;20577;-79
2021/07/06 09:28:44;;;;;;;1.93;0.80;;;21.50;99.90;;;;;;4993104;28;20898;-79
2021/07/06 09:31:19;;;;;;;3.60;1.00;;;21.60;99.90;;;;;;4993436;28;20980;-78
2021/07/06 09:33:56;;;;;;;2.63;1.00;;;21.60;99.90;;;;;;4993499;28;20601;-79
2021/07/06 09:36:32;;;;;;;2.33;0.70;;;21.70;99.90;;;;;;4993580;28;21018;-79
2021/07/06 09:39:08;;;;;;;3.83;1.00;;;21.80;99.90;;;;;;4992547;28;20600;-78
2021/07/06 09:41:35;;;;;;;2.03;0.70;;;22.00;99.90;;;;;;5000368;28;20586;-79
2021/07/06 09:44:21;;;;;;;1.30;0.60;;;22.20;99.90;;;;;;4998180;28;20570;-78
2021/07/06 09:46:51;;;;;;;1.90;0.80;;;22.30;99.90;;;;;;5003438;28;21013;-78
2021/07/06 09:49:20;;;;;;;1.60;0.70;;;22.50;99.90;;;;;;4987946;28;20582;-78
2021/07/06 09:51:47;;;;;;;1.20;0.70;;;22.70;99.90;;;;;;5003197;28;20658;-78
2021/07/06 09:54:34;;;;;;;1.73;0.60;;;22.80;99.90;;;;;;5004975;28;20568;-78
2021/07/06 09:57:31;;;;;;;1.50;0.60;;;22.90;99.90;;;;;;5005991;28;21129;-77
2021/07/06 10:00:08;;;;;;;1.40;0.60;;;23.00;99.90;;;;;;4985557;28;21218;-77
2021/07/06 10:02:44;;;;;;;1.43;0.60;;;23.20;99.90;;;;;;4998693;28;20606;-77
2021/07/06 10:05:14;;;;;;;1.10;0.50;;;23.30;99.90;;;;;;5002499;28;20582;-77
2021/07/06 10:07:40;;;;;;;1.50;0.60;;;23.40;99.90;;;;;;5001145;28;20640;-78
2021/07/06 10:10:19;;;;;;;1.77;0.70;;;23.50;99.90;;;;;;4998126;28;20581;-78
2021/07/06 10:12:49;;;;;;;1.20;0.60;;;23.60;99.90;;;;;;4981758;28;20625;-78
2021/07/06 10:15:20;;;;;;;1.30;0.60;;;23.80;99.90;;;;;;5002514;28;20602;-78
2021/07/06 10:17:47;;;;;;;1.43;0.70;;;24.00;99.90;;;;;;5000329;28;20578;-78
2021/07/06 10:20:20;;;;;;;1.40;0.60;;;24.10;99.90;;;;;;4997674;28;20697;-78
2021/07/06 10:22:47;;;;;;;1.10;0.53;;;24.20;99.90;;;;;;4997276;28;20688;-78
2021/07/06 10:25:13;;;;;;;1.20;0.50;;;24.30;99.90;;;;;;5009263;28;20585;-78
2021/07/06 10:27:48;;;;;;;1.90;0.50;;;24.50;99.90;;;;;;5008956;28;20565;-78
2021/07/06 10:30:19;;;;;;;1.83;0.50;;;24.60;99.90;;;;;;4992195;28;20569;-78
2021/07/06 10:32:50;;;;;;;1.17;0.60;;;24.80;99.90;;;;;;4994037;28;20633;-78
2021/07/06 10:35:17;;;;;;;1.50;0.50;;;25.00;99.90;;;;;;4977610;28;21137;-78
2021/07/06 10:37:43;;;;;;;1.10;0.60;;;25.60;99.90;;;;;;5009146;28;20577;-78
2021/07/06 10:40:20;;;;;;;1.13;0.50;;;26.40;99.90;;;;;;5012648;28;20631;-78
2021/07/06 10:42:50;;;;;;;1.03;0.53;;;27.00;99.90;;;;;;5014801;28;20604;-78
2021/07/06 10:45:23;;;;;;;2.23;0.60;;;27.60;99.90;;;;;;5014544;28;20569;-78
2021/07/06 10:47:53;;;;;;;2.10;0.50;;;28.20;99.90;;;;;;5014441;28;20577;-78
2021/07/06 10:50:31;;;;;;;1.00;0.47;;;28.70;99.90;;;;;;5014158;28;20569;-79
2021/07/06 10:53:18;;;;;;;4.53;0.70;;;29.00;99.90;;;;;;5016293;28;20605;-78
2021/07/06 10:55:45;;;;;;;2.07;0.50;;;29.40;99.90;;;;;;5014617;28;20561;-78
2021/07/06 10:58:50;;;;;;;2.27;0.60;;;29.80;99.90;;;;;;5014114;28;20650;-78
2021/07/06 11:01:37;;;;;;;1.33;0.40;;;30.10;99.90;;;;;;5012988;28;21151;-78
2021/07/06 11:04:08;;;;;;;1.80;0.47;;;30.20;99.90;;;;;;5014343;28;20936;-78
2021/07/06 11:06:46;;;;;;;1.93;0.50;;;30.20;99.90;;;;;;5013984;28;20627;-78
2021/07/06 11:09:29;;;;;;;1.07;0.50;;;30.10;99.90;;;;;;5014062;28;20934;-78
2021/07/06 11:12:14;;;;;;;1.10;0.43;;;29.90;99.90;;;;;;5012580;28;20730;-78
2021/07/06 11:14:47;;;;;;;1.10;0.40;;;29.80;99.90;;;;;;5014164;28;20553;-78
2021/07/06 11:17:13;;;;;;;2.60;0.50;;;29.80;99.90;;;;;;5012736;28;20572;-78
2021/07/06 11:19:41;;;;;;;1.87;0.50;;;29.70;99.90;;;;;;5013680;28;21015;-78
2021/07/06 11:22:14;;;;;;;1.77;0.47;;;29.70;99.90;;;;;;5013772;28;20205;-78
2021/07/06 11:24:42;;;;;;;1.33;0.50;;;29.70;99.90;;;;;;5013810;28;20576;-78
2021/07/06 11:27:11;;;;;;;1.00;0.40;;;29.80;99.90;;;;;;5013015;28;20988;-78
2021/07/06 11:29:41;;;;;;;1.10;0.40;;;30.00;99.90;;;;;;4996327;28;20650;-77
2021/07/06 11:32:11;;;;;;;1.10;0.40;;;30.30;99.90;;;;;;4994525;28;20618;-78
2021/07/06 11:34:37;;;;;;;2.60;0.57;;;30.70;99.90;;;;;;4994230;28;20663;-78
2021/07/06 11:37:23;;;;;;;2.30;0.50;;;31.10;99.90;;;;;;4992791;28;20581;-78
2021/07/06 11:39:52;;;;;;;1.30;0.50;;;31.40;99.90;;;;;;4992008;28;21164;-79
2021/07/06 11:42:27;;;;;;;4.63;0.60;;;31.70;99.90;;;;;;4993547;28;20615;-79
2021/07/06 11:44:53;;;;;;;1.10;0.50;;;31.90;99.90;;;;;;4993796;28;20990;-79
2021/07/06 11:47:18;;;;;;;1.90;0.73;;;32.10;99.10;;;;;;4993573;28;20576;-79
2021/07/06 11:49:44;;;;;;;2.07;0.70;;;32.30;98.30;;;;;;4993552;28;20201;-79
2021/07/06 11:52:10;;;;;;;1.30;0.50;;;32.50;97.60;;;;;;4976026;28;20203;-79
2021/07/06 11:54:42;;;;;;;1.53;0.53;;;32.70;97.60;;;;;;4976160;28;20669;-79
2021/07/06 11:57:09;;;;;;;1.37;0.57;;;32.90;96.10;;;;;;4976005;28;20184;-79
2021/07/06 11:59:36;;;;;;;1.20;0.40;;;33.10;95.20;;;;;;4993782;28;20656;-79
2021/07/06 12:02:14;;;;;;;1.23;0.50;;;33.30;93.90;;;;;;4993689;28;20207;-78
2021/07/06 12:04:40;;;;;;;1.80;0.40;;;33.30;92.40;;;;;;4992468;28;20647;-79
2021/07/06 12:07:08;;;;;;;1.83;0.70;;;33.30;91.70;;;;;;4977589;28;20582;-79
2021/07/06 12:09:35;;;;;;;3.00;0.50;;;33.40;91.90;;;;;;4993540;28;20577;-79
2021/07/06 12:12:09;;;;;;;1.93;0.50;;;33.60;92.20;;;;;;4992263;28;20644;-79
2021/07/06 12:14:35;;;;;;;1.50;0.50;;;33.60;86.10;;;;;;5004859;28;20616;-78
2021/07/06 12:17:03;;;;;;;3.73;0.50;;;33.70;90.00;;;;;;5012111;28;21128;-79
2021/07/06 12:19:29;;;;;;;2.67;0.40;;;33.50;85.50;;;;;;5003926;28;20546;-79
2021/07/06 12:21:55;;;;;;;1.50;0.60;;;33.30;84.20;;;;;;5002468;28;20600;-79
2021/07/06 12:24:26;;;;;;;2.50;0.50;;;33.10;82.00;;;;;;5011617;28;20187;-79
2021/07/06 12:26:54;;;;;;;1.60;0.43;;;32.80;81.00;;;;;;5004290;28;20587;-79
2021/07/06 12:29:37;;;;;;;1.10;0.40;;;32.40;78.70;;;;;;4994031;28;20948;-79
2021/07/06 12:32:14;;;;;;;0.90;0.40;;;32.00;75.70;;;;;;4992748;28;20637;-79
2021/07/06 12:34:59;;;;;;;1.40;0.50;;;31.70;78.50;;;;;;4992638;28;20578;-79
2021/07/06 12:37:27;;;;;;;1.70;0.50;;;31.40;73.90;;;;;;4992654;28;20616;-80
2021/07/06 12:40:01;;;;;;;1.87;0.43;;;31.30;78.90;;;;;;4991438;28;20574;-79
2021/07/06 12:42:28;;;;;;;1.43;0.50;;;31.10;77.80;;;;;;4993253;28;20601;-78
2021/07/06 12:44:56;;;;;;;3.30;0.43;;;31.00;79.40;;;;;;4995527;28;20585;-79
2021/07/06 12:47:32;;;;;;;1.50;0.50;;;30.90;79.00;;;;;;4992364;28;20602;-79
2021/07/06 12:49:58;;;;;;;2.30;0.50;;;30.70;77.70;;;;;;4992645;28;20562;-78
2021/07/06 12:52:34;;;;;;;1.10;0.40;;;30.70;78.10;;;;;;4991840;28;20642;-78
2021/07/06 12:55:19;;;;;;;1.23;0.53;;;30.60;78.10;;;;;;4991601;28;20594;-78